sensor_id;sensor_type;location;lat;lon;timestamp;P1;durP1;ratioP1;P2;durP2;ratioP2
53674;SDS011;39574;50.534;8.500;2023-07-20T00:03:24;6.6;;;2.8;;
53674;SDS011;39574;50.534;8.500;2023-07-20T00:08:23;6.5;;;2.7;;
53674;SDS011;39574;50.534;8.500;2023-07-20T00:13:23;6.1;;;2.7;;
53674;SDS011;39574;50.534;8.500;2023-07-20T00:18:22;6.3;;;2.7;;
53674;SDS011;39574;50.534;8.500;2023-07-20T00:23:22;6.5;;;2.6;;
53674;SDS011;39574;50.534;8.500;2023-07-20T00:28:21;6.8;;;2.6;;
53674;SDS011;39574;50.534;8.500;2023-07-20T00:33:20;6.8;;;2.6;;
53674;SDS011;39574;50.534;8.500;2023-07-20T00:38:20;6.7;;;2.6;;
53674;SDS011;39574;50.534;8.500;2023-07-20T00:43:19;6.7;;;2.7;;
53674;SDS011;39574;50.534;8.500;2023-07-20T00:48:18;6.8;;;2.7;;
53674;SDS011;39574;50.534;8.500;2023-07-20T00:53:18;7.1;;;2.7;;
53674;SDS011;39574;50.534;8.500;2023-07-20T00:58:17;7.4;;;2.7;;
53674;SDS011;39574;50.534;8.500;2023-07-20T01:03:16;8.0;;;2.9;;
53674;SDS011;39574;50.534;8.500;2023-07-20T01:08:17;8.9;;;3.0;;
53674;SDS011;39574;50.534;8.500;2023-07-20T01:13:15;9.6;;;3.0;;
53674;SDS011;39574;50.534;8.500;2023-07-20T01:18:14;8.8;;;3.0;;
53674;SDS011;39574;50.534;8.500;2023-07-20T01:23:29;7.9;;;2.9;;
53674;SDS011;39574;50.534;8.500;2023-07-20T01:28:20;7.9;;;2.8;;
53674;SDS011;39574;50.534;8.500;2023-07-20T01:33:13;9.8;;;2.8;;
53674;SDS011;39574;50.534;8.500;2023-07-20T01:38:12;9.4;;;2.9;;
53674;SDS011;39574;50.534;8.500;2023-07-20T01:43:11;8.7;;;3.0;;
53674;SDS011;39574;50.534;8.500;2023-07-20T01:48:10;7.7;;;2.9;;
53674;SDS011;39574;50.534;8.500;2023-07-20T01:53:10;7.2;;;2.9;;
53674;SDS011;39574;50.534;8.500;2023-07-20T01:58:09;7.5;;;2.9;;
53674;SDS011;39574;50.534;8.500;2023-07-20T02:03:08;7.8;;;2.8;;
53674;SDS011;39574;50.534;8.500;2023-07-20T02:08:08;8.4;;;2.9;;
53674;SDS011;39574;50.534;8.500;2023-07-20T02:13:07;8.6;;;2.9;;
53674;SDS011;39574;50.534;8.500;2023-07-20T02:18:06;8.9;;;3.2;;
53674;SDS011;39574;50.534;8.500;2023-07-20T02:23:06;8.7;;;3.2;;
53674;SDS011;39574;50.534;8.500;2023-07-20T02:28:06;8.6;;;3.1;;
53674;SDS011;39574;50.534;8.500;2023-07-20T02:33:04;7.9;;;3.0;;
53674;SDS011;39574;50.534;8.500;2023-07-20T02:38:04;8.1;;;2.9;;
53674;SDS011;39574;50.534;8.500;2023-07-20T02:43:03;8.6;;;3.0;;
53674;SDS011;39574;50.534;8.500;2023-07-20T02:48:02;9.4;;;3.2;;
53674;SDS011;39574;50.534;8.500;2023-07-20T02:53:02;9.1;;;3.2;;
53674;SDS011;39574;50.534;8.500;2023-07-20T02:58:01;8.7;;;3.1;;
53674;SDS011;39574;50.534;8.500;2023-07-20T03:03:00;8.8;;;3.2;;
53674;SDS011;39574;50.534;8.500;2023-07-20T03:08:00;8.4;;;3.3;;
53674;SDS011;39574;50.534;8.500;2023-07-20T03:12:59;8.3;;;3.4;;
53674;SDS011;39574;50.534;8.500;2023-07-20T03:17:58;9.3;;;3.6;;
53674;SDS011;39574;50.534;8.500;2023-07-20T03:22:58;9.7;;;3.7;;
53674;SDS011;39574;50.534;8.500;2023-07-20T03:27:57;9.4;;;3.7;;
53674;SDS011;39574;50.534;8.500;2023-07-20T03:32:56;9.4;;;3.7;;
53674;SDS011;39574;50.534;8.500;2023-07-20T03:37:56;8.3;;;3.5;;
53674;SDS011;39574;50.534;8.500;2023-07-20T03:42:55;8.7;;;3.5;;
53674;SDS011;39574;50.534;8.500;2023-07-20T03:47:54;8.2;;;3.6;;
53674;SDS011;39574;50.534;8.500;2023-07-20T03:52:54;10.3;;;3.7;;
53674;SDS011;39574;50.534;8.500;2023-07-20T03:57:53;10.4;;;3.8;;
53674;SDS011;39574;50.534;8.500;2023-07-20T04:02:52;9.7;;;3.6;;
53674;SDS011;39574;50.534;8.500;2023-07-20T04:07:52;10.4;;;3.8;;
53674;SDS011;39574;50.534;8.500;2023-07-20T04:12:51;10.0;;;3.8;;
53674;SDS011;39574;50.534;8.500;2023-07-20T04:17:50;10.1;;;3.8;;
53674;SDS011;39574;50.534;8.500;2023-07-20T04:22:49;9.3;;;3.6;;
53674;SDS011;39574;50.534;8.500;2023-07-20T04:27:49;8.9;;;3.9;;
53674;SDS011;39574;50.534;8.500;2023-07-20T04:32:48;8.7;;;3.9;;
53674;SDS011;39574;50.534;8.500;2023-07-20T04:37:48;8.8;;;4.2;;
53674;SDS011;39574;50.534;8.500;2023-07-20T04:42:47;9.6;;;4.5;;
53674;SDS011;39574;50.534;8.500;2023-07-20T04:47:46;9.4;;;4.3;;
53674;SDS011;39574;50.534;8.500;2023-07-20T04:52:45;9.4;;;4.1;;
53674;SDS011;39574;50.534;8.500;2023-07-20T04:57:44;9.6;;;4.0;;
53674;SDS011;39574;50.534;8.500;2023-07-20T05:02:44;9.5;;;4.0;;
53674;SDS011;39574;50.534;8.500;2023-07-20T05:07:43;9.6;;;4.0;;
53674;SDS011;39574;50.534;8.500;2023-07-20T05:12:42;9.8;;;4.0;;
53674;SDS011;39574;50.534;8.500;2023-07-20T05:17:42;9.0;;;3.9;;
53674;SDS011;39574;50.534;8.500;2023-07-20T05:22:41;8.8;;;3.9;;
53674;SDS011;39574;50.534;8.500;2023-07-20T05:27:40;8.5;;;3.8;;
53674;SDS011;39574;50.534;8.500;2023-07-20T05:32:40;8.6;;;3.8;;
53674;SDS011;39574;50.534;8.500;2023-07-20T05:37:39;8.6;;;3.8;;
53674;SDS011;39574;50.534;8.500;2023-07-20T05:42:38;8.5;;;3.8;;
53674;SDS011;39574;50.534;8.500;2023-07-20T05:47:38;8.2;;;3.7;;
53674;SDS011;39574;50.534;8.500;2023-07-20T05:52:37;7.7;;;3.5;;
53674;SDS011;39574;50.534;8.500;2023-07-20T05:57:36;7.2;;;3.4;;
53674;SDS011;39574;50.534;8.500;2023-07-20T06:02:36;6.9;;;3.4;;
53674;SDS011;39574;50.534;8.500;2023-07-20T06:07:35;7.4;;;3.5;;
53674;SDS011;39574;50.534;8.500;2023-07-20T06:12:34;8.3;;;4.0;;
53674;SDS011;39574;50.534;8.500;2023-07-20T06:17:34;9.0;;;4.6;;
53674;SDS011;39574;50.534;8.500;2023-07-20T06:22:33;10.0;;;5.0;;
53674;SDS011;39574;50.534;8.500;2023-07-20T06:27:32;10.3;;;5.2;;
53674;SDS011;39574;50.534;8.500;2023-07-20T06:32:32;10.1;;;5.4;;
53674;SDS011;39574;50.534;8.500;2023-07-20T06:37:32;10.8;;;5.8;;
53674;SDS011;39574;50.534;8.500;2023-07-20T06:42:31;10.9;;;5.9;;
53674;SDS011;39574;50.534;8.500;2023-07-20T06:47:30;11.2;;;5.8;;
53674;SDS011;39574;50.534;8.500;2023-07-20T06:52:29;11.1;;;5.7;;
53674;SDS011;39574;50.534;8.500;2023-07-20T06:57:29;11.8;;;5.6;;
53674;SDS011;39574;50.534;8.500;2023-07-20T07:02:28;11.8;;;5.7;;
53674;SDS011;39574;50.534;8.500;2023-07-20T07:07:28;10.9;;;5.2;;
53674;SDS011;39574;50.534;8.500;2023-07-20T07:12:27;10.7;;;5.2;;
53674;SDS011;39574;50.534;8.500;2023-07-20T07:17:27;10.3;;;5.1;;
53674;SDS011;39574;50.534;8.500;2023-07-20T07:22:26;10.1;;;5.0;;
53674;SDS011;39574;50.534;8.500;2023-07-20T07:27:26;10.0;;;5.0;;
53674;SDS011;39574;50.534;8.500;2023-07-20T07:32:25;10.1;;;4.8;;
53674;SDS011;39574;50.534;8.500;2023-07-20T07:37:24;9.6;;;4.7;;
53674;SDS011;39574;50.534;8.500;2023-07-20T07:47:23;10.1;;;4.7;;
53674;SDS011;39574;50.534;8.500;2023-07-20T07:57:22;9.7;;;4.6;;
53674;SDS011;39574;50.534;8.500;2023-07-20T08:02:22;10.1;;;4.9;;
53674;SDS011;39574;50.534;8.500;2023-07-20T08:07:21;9.2;;;4.6;;
53674;SDS011;39574;50.534;8.500;2023-07-20T08:12:21;10.0;;;4.8;;
53674;SDS011;39574;50.534;8.500;2023-07-20T08:17:20;9.7;;;4.8;;
53674;SDS011;39574;50.534;8.500;2023-07-20T08:22:20;9.0;;;4.6;;
53674;SDS011;39574;50.534;8.500;2023-07-20T08:27:19;8.8;;;4.6;;
53674;SDS011;39574;50.534;8.500;2023-07-20T08:32:19;9.7;;;4.8;;
53674;SDS011;39574;50.534;8.500;2023-07-20T08:37:18;10.0;;;5.3;;
53674;SDS011;39574;50.534;8.500;2023-07-20T08:42:18;10.6;;;6.0;;
53674;SDS011;39574;50.534;8.500;2023-07-20T08:47:17;11.2;;;6.6;;
53674;SDS011;39574;50.534;8.500;2023-07-20T08:52:16;12.1;;;6.5;;
53674;SDS011;39574;50.534;8.500;2023-07-20T08:57:16;12.6;;;6.1;;
53674;SDS011;39574;50.534;8.500;2023-07-20T09:02:16;11.4;;;5.9;;
53674;SDS011;39574;50.534;8.500;2023-07-20T09:07:15;9.8;;;5.3;;
53674;SDS011;39574;50.534;8.500;2023-07-20T09:12:15;9.3;;;4.9;;
53674;SDS011;39574;50.534;8.500;2023-07-20T09:17:14;8.4;;;4.8;;
53674;SDS011;39574;50.534;8.500;2023-07-20T09:22:14;8.2;;;4.5;;
53674;SDS011;39574;50.534;8.500;2023-07-20T09:27:13;8.2;;;4.3;;
53674;SDS011;39574;50.534;8.500;2023-07-20T09:32:13;9.5;;;4.3;;
53674;SDS011;39574;50.534;8.500;2023-07-20T09:37:12;8.9;;;4.2;;
53674;SDS011;39574;50.534;8.500;2023-07-20T09:42:12;8.7;;;4.0;;
53674;SDS011;39574;50.534;8.500;2023-07-20T09:47:11;7.7;;;3.9;;
53674;SDS011;39574;50.534;8.500;2023-07-20T09:52:11;7.3;;;4.0;;
53674;SDS011;39574;50.534;8.500;2023-07-20T09:57:11;6.9;;;4.0;;
53674;SDS011;39574;50.534;8.500;2023-07-20T10:02:11;6.7;;;4.0;;
53674;SDS011;39574;50.534;8.500;2023-07-20T10:07:10;8.0;;;3.9;;
53674;SDS011;39574;50.534;8.500;2023-07-20T10:12:09;7.7;;;3.8;;
53674;SDS011;39574;50.534;8.500;2023-07-20T10:17:10;7.9;;;3.8;;
53674;SDS011;39574;50.534;8.500;2023-07-20T10:22:10;7.4;;;3.6;;
53674;SDS011;39574;50.534;8.500;2023-07-20T10:27:08;6.8;;;3.7;;
53674;SDS011;39574;50.534;8.500;2023-07-20T10:32:08;7.1;;;3.7;;
53674;SDS011;39574;50.534;8.500;2023-07-20T10:37:08;6.9;;;3.6;;
53674;SDS011;39574;50.534;8.500;2023-07-20T10:42:07;6.6;;;3.5;;
53674;SDS011;39574;50.534;8.500;2023-07-20T10:47:08;6.5;;;3.5;;
53674;SDS011;39574;50.534;8.500;2023-07-20T10:52:07;7.6;;;3.7;;
53674;SDS011;39574;50.534;8.500;2023-07-20T10:57:23;7.5;;;3.8;;
53674;SDS011;39574;50.534;8.500;2023-07-20T11:02:06;7.0;;;3.8;;
53674;SDS011;39574;50.534;8.500;2023-07-20T11:07:05;6.9;;;3.8;;
53674;SDS011;39574;50.534;8.500;2023-07-20T11:12:09;6.4;;;3.6;;
53674;SDS011;39574;50.534;8.500;2023-07-20T11:17:10;7.0;;;3.7;;
53674;SDS011;39574;50.534;8.500;2023-07-20T11:22:04;7.7;;;3.6;;
53674;SDS011;39574;50.534;8.500;2023-07-20T11:27:04;7.3;;;3.6;;
53674;SDS011;39574;50.534;8.500;2023-07-20T11:32:04;7.5;;;3.4;;
53674;SDS011;39574;50.534;8.500;2023-07-20T11:37:05;7.2;;;3.4;;
53674;SDS011;39574;50.534;8.500;2023-07-20T11:42:03;6.6;;;3.3;;
53674;SDS011;39574;50.534;8.500;2023-07-20T11:47:03;6.7;;;3.4;;
53674;SDS011;39574;50.534;8.500;2023-07-20T11:52:02;6.8;;;3.3;;
53674;SDS011;39574;50.534;8.500;2023-07-20T11:57:02;6.6;;;3.2;;
53674;SDS011;39574;50.534;8.500;2023-07-20T12:02:02;6.9;;;3.3;;
53674;SDS011;39574;50.534;8.500;2023-07-20T12:07:01;6.9;;;3.3;;
53674;SDS011;39574;50.534;8.500;2023-07-20T12:12:03;6.8;;;3.5;;
53674;SDS011;39574;50.534;8.500;2023-07-20T12:17:00;7.0;;;3.7;;
53674;SDS011;39574;50.534;8.500;2023-07-20T12:22:00;7.4;;;3.7;;
53674;SDS011;39574;50.534;8.500;2023-07-20T12:27:00;7.7;;;3.7;;
53674;SDS011;39574;50.534;8.500;2023-07-20T12:31:59;7.1;;;3.6;;
53674;SDS011;39574;50.534;8.500;2023-07-20T12:36:59;7.3;;;3.5;;
53674;SDS011;39574;50.534;8.500;2023-07-20T12:41:58;6.7;;;3.5;;
53674;SDS011;39574;50.534;8.500;2023-07-20T12:46:58;6.3;;;3.5;;
53674;SDS011;39574;50.534;8.500;2023-07-20T12:51:57;7.1;;;3.7;;
53674;SDS011;39574;50.534;8.500;2023-07-20T12:56:57;7.6;;;3.8;;
53674;SDS011;39574;50.534;8.500;2023-07-20T13:01:57;7.2;;;3.6;;
53674;SDS011;39574;50.534;8.500;2023-07-20T13:06:56;6.4;;;3.5;;
53674;SDS011;39574;50.534;8.500;2023-07-20T13:11:56;6.6;;;3.2;;
53674;SDS011;39574;50.534;8.500;2023-07-20T13:16:56;6.2;;;3.1;;
53674;SDS011;39574;50.534;8.500;2023-07-20T13:21:56;5.9;;;3.0;;
53674;SDS011;39574;50.534;8.500;2023-07-20T13:26:55;5.8;;;3.0;;
53674;SDS011;39574;50.534;8.500;2023-07-20T13:31:55;6.0;;;3.0;;
53674;SDS011;39574;50.534;8.500;2023-07-20T13:36:55;6.1;;;3.1;;
53674;SDS011;39574;50.534;8.500;2023-07-20T13:41:54;5.7;;;3.1;;
53674;SDS011;39574;50.534;8.500;2023-07-20T13:46:54;5.4;;;2.9;;
53674;SDS011;39574;50.534;8.500;2023-07-20T13:51:54;5.5;;;2.9;;
53674;SDS011;39574;50.534;8.500;2023-07-20T13:56:53;6.3;;;2.7;;
53674;SDS011;39574;50.534;8.500;2023-07-20T14:01:53;6.2;;;2.7;;
53674;SDS011;39574;50.534;8.500;2023-07-20T14:06:53;6.5;;;3.1;;
53674;SDS011;39574;50.534;8.500;2023-07-20T14:11:53;6.2;;;3.1;;
53674;SDS011;39574;50.534;8.500;2023-07-20T14:16:52;6.4;;;3.1;;
53674;SDS011;39574;50.534;8.500;2023-07-20T14:21:52;7.1;;;3.0;;
53674;SDS011;39574;50.534;8.500;2023-07-20T14:26:51;6.9;;;2.8;;
53674;SDS011;39574;50.534;8.500;2023-07-20T14:31:51;7.1;;;2.8;;
53674;SDS011;39574;50.534;8.500;2023-07-20T14:36:51;6.2;;;2.6;;
53674;SDS011;39574;50.534;8.500;2023-07-20T14:41:50;6.1;;;2.3;;
53674;SDS011;39574;50.534;8.500;2023-07-20T14:46:50;5.4;;;2.2;;
53674;SDS011;39574;50.534;8.500;2023-07-20T14:51:50;6.0;;;2.2;;
53674;SDS011;39574;50.534;8.500;2023-07-20T14:56:49;6.2;;;2.4;;
53674;SDS011;39574;50.534;8.500;2023-07-20T15:01:49;7.7;;;2.7;;
53674;SDS011;39574;50.534;8.500;2023-07-20T15:06:49;6.7;;;2.5;;
53674;SDS011;39574;50.534;8.500;2023-07-20T15:11:48;6.3;;;2.5;;
53674;SDS011;39574;50.534;8.500;2023-07-20T15:16:48;5.6;;;2.3;;
53674;SDS011;39574;50.534;8.500;2023-07-20T15:21:48;4.9;;;2.2;;
53674;SDS011;39574;50.534;8.500;2023-07-20T15:26:47;4.8;;;2.1;;
53674;SDS011;39574;50.534;8.500;2023-07-20T15:31:47;4.8;;;2.1;;
53674;SDS011;39574;50.534;8.500;2023-07-20T15:36:47;5.3;;;2.3;;
53674;SDS011;39574;50.534;8.500;2023-07-20T15:41:47;5.6;;;2.2;;
53674;SDS011;39574;50.534;8.500;2023-07-20T15:46:46;5.5;;;2.1;;
53674;SDS011;39574;50.534;8.500;2023-07-20T15:51:46;5.2;;;2.1;;
53674;SDS011;39574;50.534;8.500;2023-07-20T15:56:45;4.8;;;2.0;;
53674;SDS011;39574;50.534;8.500;2023-07-20T16:01:45;5.5;;;2.1;;
53674;SDS011;39574;50.534;8.500;2023-07-20T16:06:45;5.3;;;2.2;;
53674;SDS011;39574;50.534;8.500;2023-07-20T16:11:44;5.1;;;2.1;;
53674;SDS011;39574;50.534;8.500;2023-07-20T16:16:44;6.7;;;2.4;;
53674;SDS011;39574;50.534;8.500;2023-07-20T16:21:44;6.4;;;2.3;;
53674;SDS011;39574;50.534;8.500;2023-07-20T16:26:43;5.8;;;2.1;;
53674;SDS011;39574;50.534;8.500;2023-07-20T16:31:43;6.2;;;2.1;;
53674;SDS011;39574;50.534;8.500;2023-07-20T16:36:43;5.3;;;2.1;;
53674;SDS011;39574;50.534;8.500;2023-07-20T16:41:42;5.0;;;2.1;;
53674;SDS011;39574;50.534;8.500;2023-07-20T16:46:42;5.2;;;2.1;;
53674;SDS011;39574;50.534;8.500;2023-07-20T16:51:41;5.0;;;2.0;;
53674;SDS011;39574;50.534;8.500;2023-07-20T16:56:41;4.7;;;2.0;;
53674;SDS011;39574;50.534;8.500;2023-07-20T17:01:41;4.7;;;2.0;;
53674;SDS011;39574;50.534;8.500;2023-07-20T17:06:40;4.6;;;2.0;;
53674;SDS011;39574;50.534;8.500;2023-07-20T17:11:40;5.3;;;2.0;;
53674;SDS011;39574;50.534;8.500;2023-07-20T17:16:39;4.9;;;1.9;;
53674;SDS011;39574;50.534;8.500;2023-07-20T17:21:39;5.6;;;1.9;;
53674;SDS011;39574;50.534;8.500;2023-07-20T17:26:39;6.1;;;1.9;;
53674;SDS011;39574;50.534;8.500;2023-07-20T17:31:38;5.4;;;1.9;;
53674;SDS011;39574;50.534;8.500;2023-07-20T17:36:38;5.0;;;1.9;;
53674;SDS011;39574;50.534;8.500;2023-07-20T17:41:37;5.4;;;1.8;;
53674;SDS011;39574;50.534;8.500;2023-07-20T17:46:37;6.0;;;1.9;;
53674;SDS011;39574;50.534;8.500;2023-07-20T17:51:37;6.0;;;1.8;;
53674;SDS011;39574;50.534;8.500;2023-07-20T17:56:36;5.3;;;1.7;;
53674;SDS011;39574;50.534;8.500;2023-07-20T18:01:36;5.0;;;1.7;;
53674;SDS011;39574;50.534;8.500;2023-07-20T18:06:35;4.6;;;1.6;;
53674;SDS011;39574;50.534;8.500;2023-07-20T18:11:35;4.5;;;1.7;;
53674;SDS011;39574;50.534;8.500;2023-07-20T18:16:35;4.9;;;1.7;;
53674;SDS011;39574;50.534;8.500;2023-07-20T18:21:34;4.8;;;1.8;;
53674;SDS011;39574;50.534;8.500;2023-07-20T18:26:34;4.9;;;1.8;;
53674;SDS011;39574;50.534;8.500;2023-07-20T18:31:33;5.0;;;1.9;;
53674;SDS011;39574;50.534;8.500;2023-07-20T18:36:33;5.7;;;2.5;;
53674;SDS011;39574;50.534;8.500;2023-07-20T18:41:33;5.8;;;2.6;;
53674;SDS011;39574;50.534;8.500;2023-07-20T18:46:32;5.7;;;2.4;;
53674;SDS011;39574;50.534;8.500;2023-07-20T18:51:32;5.0;;;2.1;;
53674;SDS011;39574;50.534;8.500;2023-07-20T18:56:32;4.6;;;1.8;;
53674;SDS011;39574;50.534;8.500;2023-07-20T19:01:31;4.5;;;1.8;;
53674;SDS011;39574;50.534;8.500;2023-07-20T19:06:31;4.1;;;1.7;;
53674;SDS011;39574;50.534;8.500;2023-07-20T19:11:30;4.3;;;1.8;;
53674;SDS011;39574;50.534;8.500;2023-07-20T19:16:30;4.2;;;1.8;;
53674;SDS011;39574;50.534;8.500;2023-07-20T19:21:29;4.4;;;1.9;;
53674;SDS011;39574;50.534;8.500;2023-07-20T19:26:29;4.4;;;1.9;;
53674;SDS011;39574;50.534;8.500;2023-07-20T19:31:28;5.3;;;2.0;;
53674;SDS011;39574;50.534;8.500;2023-07-20T19:36:28;5.3;;;1.9;;
53674;SDS011;39574;50.534;8.500;2023-07-20T19:41:28;5.1;;;1.9;;
53674;SDS011;39574;50.534;8.500;2023-07-20T19:46:27;4.9;;;2.0;;
53674;SDS011;39574;50.534;8.500;2023-07-20T19:51:27;5.0;;;2.1;;
53674;SDS011;39574;50.534;8.500;2023-07-20T19:56:26;6.2;;;2.1;;
53674;SDS011;39574;50.534;8.500;2023-07-20T20:01:26;5.8;;;2.1;;
53674;SDS011;39574;50.534;8.500;2023-07-20T20:06:26;5.8;;;2.2;;
53674;SDS011;39574;50.534;8.500;2023-07-20T20:11:25;5.5;;;2.2;;
53674;SDS011;39574;50.534;8.500;2023-07-20T20:16:25;5.3;;;2.2;;
53674;SDS011;39574;50.534;8.500;2023-07-20T20:21:24;4.9;;;2.1;;
53674;SDS011;39574;50.534;8.500;2023-07-20T20:26:24;4.8;;;2.1;;
53674;SDS011;39574;50.534;8.500;2023-07-20T20:31:23;5.3;;;2.1;;
53674;SDS011;39574;50.534;8.500;2023-07-20T20:36:23;5.5;;;2.2;;
53674;SDS011;39574;50.534;8.500;2023-07-20T20:41:22;6.0;;;2.1;;
53674;SDS011;39574;50.534;8.500;2023-07-20T20:46:22;6.2;;;2.1;;
53674;SDS011;39574;50.534;8.500;2023-07-20T20:51:21;6.4;;;2.1;;
53674;SDS011;39574;50.534;8.500;2023-07-20T20:56:20;7.7;;;2.2;;
53674;SDS011;39574;50.534;8.500;2023-07-20T21:01:20;7.1;;;2.2;;
53674;SDS011;39574;50.534;8.500;2023-07-20T21:06:19;6.8;;;2.2;;
53674;SDS011;39574;50.534;8.500;2023-07-20T21:11:22;6.2;;;2.3;;
53674;SDS011;39574;50.534;8.500;2023-07-20T21:16:18;6.1;;;2.2;;
53674;SDS011;39574;50.534;8.500;2023-07-20T21:21:18;6.8;;;2.2;;
53674;SDS011;39574;50.534;8.500;2023-07-20T21:26:17;6.7;;;2.3;;
53674;SDS011;39574;50.534;8.500;2023-07-20T21:31:16;6.3;;;2.4;;
53674;SDS011;39574;50.534;8.500;2023-07-20T21:36:16;6.3;;;2.4;;
53674;SDS011;39574;50.534;8.500;2023-07-20T21:41:15;6.0;;;2.4;;
53674;SDS011;39574;50.534;8.500;2023-07-20T21:46:15;6.1;;;2.4;;
53674;SDS011;39574;50.534;8.500;2023-07-20T21:51:14;6.3;;;2.4;;
53674;SDS011;39574;50.534;8.500;2023-07-20T21:56:13;6.8;;;2.5;;
53674;SDS011;39574;50.534;8.500;2023-07-20T22:01:13;6.5;;;2.4;;
53674;SDS011;39574;50.534;8.500;2023-07-20T22:06:12;6.4;;;2.4;;
53674;SDS011;39574;50.534;8.500;2023-07-20T22:11:11;6.2;;;2.5;;
53674;SDS011;39574;50.534;8.500;2023-07-20T22:16:11;8.5;;;2.6;;
53674;SDS011;39574;50.534;8.500;2023-07-20T22:21:10;7.8;;;2.7;;
53674;SDS011;39574;50.534;8.500;2023-07-20T22:26:10;7.7;;;2.7;;
53674;SDS011;39574;50.534;8.500;2023-07-20T22:31:09;7.1;;;2.8;;
53674;SDS011;39574;50.534;8.500;2023-07-20T22:36:09;6.7;;;3.0;;
53674;SDS011;39574;50.534;8.500;2023-07-20T22:41:08;6.4;;;3.0;;
53674;SDS011;39574;50.534;8.500;2023-07-20T22:46:07;7.0;;;3.0;;
53674;SDS011;39574;50.534;8.500;2023-07-20T22:51:07;6.5;;;2.9;;
53674;SDS011;39574;50.534;8.500;2023-07-20T22:56:06;6.6;;;2.9;;
53674;SDS011;39574;50.534;8.500;2023-07-20T23:01:07;6.7;;;3.0;;
53674;SDS011;39574;50.534;8.500;2023-07-20T23:06:05;10.6;;;3.1;;
53674;SDS011;39574;50.534;8.500;2023-07-20T23:11:05;9.8;;;3.3;;
53674;SDS011;39574;50.534;8.500;2023-07-20T23:16:03;8.9;;;3.3;;
53674;SDS011;39574;50.534;8.500;2023-07-20T23:21:03;7.5;;;3.2;;
53674;SDS011;39574;50.534;8.500;2023-07-20T23:26:02;7.0;;;3.3;;
53674;SDS011;39574;50.534;8.500;2023-07-20T23:31:01;7.2;;;3.3;;
53674;SDS011;39574;50.534;8.500;2023-07-20T23:36:00;7.9;;;3.3;;
53674;SDS011;39574;50.534;8.500;2023-07-20T23:41:00;7.7;;;3.2;;
53674;SDS011;39574;50.534;8.500;2023-07-20T23:45:59;7.4;;;3.1;;
53674;SDS011;39574;50.534;8.500;2023-07-20T23:50:58;6.8;;;3.1;;
53674;SDS011;39574;50.534;8.500;2023-07-20T23:55:58;6.3;;;3.1;;
